Terminal Aerodrome Forecast
Issued by NWS Charleston, WV

Home | Current Version | Previous Version | Text Only | Print | Product List | Glossary On
Versions: 1 2 3 4 5 6 7 8 9 10 11 12 13 14 15 16 17 18 19 20 21 22 23 24 25 26
000
FTUS41 KRLX 212300
TAFHTS
TAF
KHTS 212328Z 2200/2224 00000KT P6SM BKN040
     FM220500 21004KT 6SM BR BKN050
     FM220900 22004KT 3SM BR BKN040
     FM221400 VRB03KT 4SM BR BKN080
     FM221500 VRB03KT P6SM BKN080=

USA.gov is the U.S. government's official web portal to all federal, state and local government web resources and services.